Terminal Aerodrome Forecast
Issued by NWS

Home | Current Version | Previous Version | Text Only | Print | Product List | Glossary On
Versions: 1 2 3 4 5 6 7 8 9 10 11 12 13 14 15
000
FTAK31 PAJN 151749 RRA
TAFASI
TAF
PASI 151749Z 1518/1618 16008KT P6SM VCSH SCT025 OVC050
     FM160200 12010KT P6SM OVC050
     FM160600 12015G25KT P6SM -RA BKN030 OVC050
     FM161000 12020G30KT 6SM -RA BR SCT015 OVC025
     FM161500 14015G25KT 4SM RA BR OVC015=

USA.gov is the U.S. government's official web portal to all federal, state and local government web resources and services.